W24 weather

Falwell Airport
Lynchburg, Virginia, United States

Public forecast

Using degrees Fahrenheit for public forecast. Weather courtesy of forecast.io.

METAR (pilot weather report)

Closest report is Lynchburg Regional Preston Glenn Field, 4.8 nm (9.0 km) SW. Retrieved 2019/07/21 07:54 UTC (11 minutes ago):

KLYH 210754Z AUTO 19003KT 10SM CLR 23/22 A2996 RMK AO2 SLP132 T02330222

TAF (pilot weather forecast)

Closest forecast is Lynchburg Regional Preston Glenn Field, 4.8 nm (9.0 km) SW. Retrieved 2019/07/21 06:00 UTC (2 hours ago):

TAF KLYH 210558Z 2106/2206 00000KT P6SM SKC FM211700 21005KT P6SM FEW050 FM212100 21006KT P6SM VCTS SCT050CB SCT250 FM220000 VRB03KT P6SM SCT250